KEWB/EWB METAR and TAF weather

Enter ICAO airport designator
Station Type Date Time Source
KEWB METAR 2019/04/25 11:53 UTC NOAA

KEWB 251153Z 32004KT 10SM CLR 08/04 A2995 RMK AO2 SLP142 T00830044 10083 20061 53019


Station Type Date Time Source
KEWB Decoded METAR 2019/04/25 11:53 UTC NOAA

NEW BEDFORD REGIONAL AIRPORT, MA, United States (KEWB) 41-41N 070-58W 23M
Apr 25, 2019 - 07:53 AM EDT / 2019.04.25 1153 UTC
Wind: from the NW (320 degrees) at 5 MPH (4 KT):0
Visibility: 10 mile(s):0
Sky conditions: clear
Temperature: 46.9 F (8.3 C)
Dew Point: 39.9 F (4.4 C)
Relative Humidity: 76%
Pressure (altimeter): 29.95 in. Hg (1014 hPa)
Pressure tendency: 0.06 inches (1.9 hPa) higher than three hours ago
ob: KEWB 251153Z 32004KT 10SM CLR 08/04 A2995 RMK AO2 SLP142 T00830044 10083 20061 53019
cycle: 12

Station Type Date Time Source
KEWB TAF UTC NOAA

Error!

Example: see airport list